Time;durP1;ratioP1;P1;durP2;ratioP2;P2;SDS_P1;SDS_P2;PMS_P1;PMS_P2;Temp;Humidity;BMP_temperature;BMP_pressure;BME280_temperature;BME280_humidity;BME280_pressure;Samples;Min_cycle;Max_cycle;Signal;HPM_P1;HPM_P2
2023/02/21 02:20:50;;;;;;;3.22;1.83;;;;;;;9.30;72.29;100503.34;5067191;27;20395;-42
2023/02/21 02:29:16;;;;;;;2.60;1.45;;;;;;;9.32;72.50;100499.06;5027321;27;20395;-44
2023/02/21 02:34:59;;;;;;;5.22;3.58;;;;;;;9.34;72.40;100495.66;5070764;27;20395;-45
2023/02/21 02:37:51;;;;;;;4.00;2.92;;;;;;;9.30;72.14;100498.16;5090020;28;20072;-47
2023/02/21 02:45:56;;;;;;;4.78;2.47;;;;;;;9.62;71.68;100490.72;5065803;27;20389;-44
2023/02/21 02:48:29;;;;;;;3.53;2.25;;;;;;;9.48;72.56;100488.00;5051281;28;20049;-47
2023/02/21 02:50:59;;;;;;;3.35;2.65;;;;;;;9.43;72.02;100484.53;5063855;28;20072;-43
2023/02/21 02:53:28;;;;;;;3.15;2.55;;;;;;;9.42;72.47;100485.34;5062854;28;20127;-48
2023/02/21 02:55:57;;;;;;;3.38;1.88;;;;;;;9.39;72.69;100475.84;5071174;28;20054;-43
2023/02/21 02:58:27;;;;;;;3.90;2.03;;;;;;;9.41;71.87;100473.28;5060999;28;20045;-49
2023/02/21 03:04:25;;;;;;;2.28;1.02;;;;;;;9.30;72.75;100464.56;5061948;27;20385;-50
2023/02/21 03:09:45;;;;;;;2.33;1.10;;;;;;;9.28;72.82;100450.78;5048399;27;20399;-46
2023/02/21 03:12:52;;;;;;;1.92;1.15;;;;;;;9.24;71.98;100452.47;5009851;28;20140;-42
2023/02/21 03:15:24;;;;;;;2.70;0.80;;;;;;;9.25;72.16;100452.47;5021669;28;20493;-45
2023/02/21 03:17:58;;;;;;;1.40;0.70;;;;;;;9.24;72.35;100448.16;5022124;28;20549;-45
2023/02/21 03:20:27;;;;;;;2.47;0.63;;;;;;;9.23;71.99;100449.00;5024832;28;20049;-46
2023/02/21 03:22:56;;;;;;;1.75;0.60;;;;;;;9.24;72.39;100457.63;5018510;28;20140;-42
2023/02/21 03:25:24;;;;;;;1.38;0.73;;;;;;;9.25;72.35;100457.63;5023974;28;20053;-47
2023/02/21 03:27:53;;;;;;;1.65;0.75;;;;;;;9.20;72.14;100458.44;5023863;28;20073;-42
2023/02/21 03:30:20;;;;;;;1.58;0.60;;;;;;;9.21;72.36;100466.22;5023859;28;20933;-48
2023/02/21 03:32:51;;;;;;;2.25;0.93;;;;;;;9.22;72.22;100467.94;5023747;28;20413;-42
2023/02/21 03:35:18;;;;;;;;;;;;;;;9.07;72.98;100457.47;5013839;28;20441;-45
2023/02/21 03:37:52;;;;;;;2.35;1.00;;;;;;;9.17;72.40;100461.88;5021858;28;20455;-43
2023/02/21 03:40:22;;;;;;;2.47;1.17;;;;;;;9.14;72.68;100456.66;5003594;28;20141;-46
2023/02/21 03:42:50;;;;;;;2.25;1.15;;;;;;;9.17;72.60;100459.28;5021130;28;20072;-46
2023/02/21 03:45:17;;;;;;;4.07;1.05;;;;;;;9.19;72.36;100462.75;5021819;28;20076;-45
2023/02/21 03:47:44;;;;;;;2.10;0.80;;;;;;;9.20;72.32;100463.63;5024114;28;20077;-44
2023/02/21 03:50:10;;;;;;;1.90;0.70;;;;;;;9.18;72.33;100455.84;5004039;28;20047;-44
2023/02/21 03:52:37;;;;;;;2.90;0.90;;;;;;;9.19;72.04;100457.56;5020846;28;20053;-47
2023/02/21 03:55:05;;;;;;;2.63;1.02;;;;;;;9.20;71.94;100461.91;5021852;28;20073;-48
2023/02/21 03:57:32;;;;;;;2.45;1.20;;;;;;;9.21;72.33;100455.00;5004189;28;20043;-45
2023/02/21 03:59:59;;;;;;;3.13;1.30;;;;;;;9.20;72.31;100456.75;5003559;28;20588;-46
2023/02/21 04:02:26;;;;;;;3.65;1.23;;;;;;;9.21;72.33;100461.06;5023021;28;20439;-44
2023/02/21 04:04:53;;;;;;;2.45;1.30;;;;;;;9.18;72.29;100455.00;5019783;28;20497;-43
2023/02/21 04:07:20;;;;;;;2.75;1.15;;;;;;;9.18;71.91;100457.59;5008407;28;20113;-44
2023/02/21 04:09:47;;;;;;;3.97;1.77;;;;;;;9.19;72.18;100456.72;5008006;28;20042;-41
2023/02/21 04:12:14;;;;;;;2.80;1.35;;;;;;;9.20;72.59;100456.75;5019847;28;20096;-42
2023/02/21 04:14:41;;;;;;;3.92;1.38;;;;;;;9.21;72.55;100461.06;5023226;28;20482;-41
2023/02/21 04:17:07;;;;;;;6.97;1.30;;;;;;;9.21;72.49;100466.22;5023206;28;20049;-45
2023/02/21 04:19:34;;;;;;;2.95;1.20;;;;;;;9.22;72.50;100457.59;5005700;28;20054;-41
2023/02/21 04:22:01;;;;;;;3.65;1.58;;;;;;;9.25;72.51;100456.75;4989489;28;20058;-45
2023/02/21 04:24:27;;;;;;;2.72;1.13;;;;;;;9.25;72.45;100451.59;4995735;28;20095;-44
2023/02/21 04:26:54;;;;;;;2.33;1.15;;;;;;;9.24;72.34;100444.69;5007924;28;20046;-43
2023/02/21 04:29:21;;;;;;;4.03;1.17;;;;;;;9.24;72.73;100444.69;5010385;28;20133;-43
2023/02/21 04:31:47;;;;;;;3.03;1.35;;;;;;;9.24;71.73;100440.41;5010243;28;20141;-43
2023/02/21 04:34:14;;;;;;;2.65;1.20;;;;;;;9.22;72.62;100434.34;5006359;28;20074;-44
2023/02/21 04:36:41;;;;;;;1.70;0.82;;;;;;;9.22;72.53;100436.94;5009718;28;20045;-45
2023/02/21 04:39:08;;;;;;;2.38;1.13;;;;;;;9.20;72.91;100430.91;4998966;28;20069;-45
2023/02/21 04:41:35;;;;;;;2.63;1.63;;;;;;;9.21;72.76;100424.88;5007418;28;20072;-44
2023/02/21 04:44:01;;;;;;;3.28;1.15;;;;;;;9.20;72.43;100417.97;5009937;28;20081;-47
2023/02/21 04:46:28;;;;;;;2.50;1.33;;;;;;;9.20;72.65;100417.09;5009912;28;20045;-44
2023/02/21 04:48:54;;;;;;;3.13;1.08;;;;;;;9.19;72.76;100426.56;5004328;28;20077;-48
2023/02/21 04:51:23;;;;;;;3.95;1.77;;;;;;;9.19;72.67;100426.56;5008119;28;20057;-43
2023/02/21 04:53:51;;;;;;;2.88;1.20;;;;;;;9.19;72.53;100436.91;5004707;28;20084;-46
2023/02/21 04:56:19;;;;;;;3.20;1.67;;;;;;;9.20;72.78;100437.78;5006093;28;20443;-45
2023/02/21 04:58:47;;;;;;;3.90;1.90;;;;;;;9.21;72.68;100434.31;5009153;28;20250;-42
2023/02/21 05:01:15;;;;;;;3.15;1.02;;;;;;;9.22;72.82;100436.94;4991855;28;20062;-43
2023/02/21 05:03:42;;;;;;;2.53;1.10;;;;;;;9.22;72.56;100436.09;5007732;28;20258;-45
2023/02/21 05:06:09;;;;;;;2.65;1.25;;;;;;;9.23;72.82;100432.63;5009542;28;20076;-50
2023/02/21 05:08:36;;;;;;;3.72;1.30;;;;;;;9.21;72.79;100435.19;5006370;28;20038;-42
2023/02/21 05:11:03;;;;;;;2.78;1.30;;;;;;;9.21;72.50;100440.38;5004628;28;20160;-42
2023/02/21 05:13:29;;;;;;;2.35;0.93;;;;;;;9.21;72.76;100444.66;5009508;28;20116;-44
2023/02/21 05:15:56;;;;;;;3.05;0.90;;;;;;;9.20;72.51;100443.81;5008313;28;20080;-43
2023/02/21 05:18:27;;;;;;;2.25;0.77;;;;;;;9.22;72.67;100447.25;4997081;28;20546;-45
2023/02/21 05:20:54;;;;;;;2.55;1.30;;;;;;;9.23;72.59;100449.00;4981146;28;20050;-45
2023/02/21 05:23:32;;;;;;;2.83;1.25;;;;;;;9.24;72.53;100448.16;4990666;28;20254;-45
2023/02/21 05:26:02;;;;;;;2.78;1.20;;;;;;;9.24;72.52;100443.00;4989906;28;20112;-43
2023/02/21 05:28:29;;;;;;;2.90;2.00;;;;;;;9.24;72.64;100445.56;4989327;28;20660;-45
2023/02/21 05:30:55;;;;;;;3.55;1.60;;;;;;;9.25;72.03;100446.44;5001368;28;20054;-46
2023/02/21 05:33:25;;;;;;;3.35;1.30;;;;;;;9.24;72.60;100450.75;4993643;28;20070;-46
2023/02/21 05:35:52;;;;;;;2.08;0.93;;;;;;;9.24;72.07;100445.56;4989348;28;20141;-43
2023/02/21 05:38:21;;;;;;;1.77;1.23;;;;;;;9.24;72.41;100443.00;4997536;28;20085;-45
2023/02/21 05:40:47;;;;;;;2.80;1.30;;;;;;;9.24;72.50;100437.81;4991704;28;20124;-46
2023/02/21 05:43:14;;;;;;;2.50;1.00;;;;;;;9.25;72.28;100436.97;5006959;28;20042;-44
2023/02/21 05:45:41;;;;;;;2.47;1.30;;;;;;;9.26;72.30;100443.84;5007109;28;20140;-45
2023/02/21 05:48:08;;;;;;;2.92;1.00;;;;;;;9.26;72.48;100443.84;5002807;28;20042;-42
2023/02/21 05:50:34;;;;;;;1.98;0.90;;;;;;;9.27;72.28;100444.72;4987561;28;20112;-43
2023/02/21 05:53:01;;;;;;;2.33;1.00;;;;;;;9.26;72.58;100438.69;4992964;28;20525;-42
2023/02/21 05:55:27;;;;;;;1.77;0.95;;;;;;;9.25;72.10;100442.13;5000600;28;20502;-45
2023/02/21 05:57:54;;;;;;;2.42;1.20;;;;;;;9.26;72.43;100435.25;4996940;28;20560;-44
2023/02/21 06:00:26;;;;;;;2.40;1.13;;;;;;;9.26;72.10;100433.53;4989502;28;20054;-45
2023/02/21 06:02:54;;;;;;;2.45;1.08;;;;;;;9.25;72.17;100434.38;5005027;28;20057;-49
2023/02/21 06:05:21;;;;;;;2.95;1.30;;;;;;;9.25;71.78;100431.78;4989588;28;20086;-43
2023/02/21 06:07:48;;;;;;;2.55;1.20;;;;;;;9.25;72.52;100416.28;5003071;28;20124;-44
2023/02/21 06:10:16;;;;;;;4.38;1.35;;;;;;;9.26;72.13;100427.50;4998343;28;20502;-50
2023/02/21 06:12:42;;;;;;;2.20;1.02;;;;;;;9.23;71.69;100417.97;4987420;28;20069;-45
2023/02/21 06:15:09;;;;;;;3.30;1.35;;;;;;;9.24;72.18;100417.16;5003852;28;20092;-49
2023/02/21 06:17:36;;;;;;;3.65;2.40;;;;;;;9.24;72.31;100413.69;5007981;28;20446;-45
2023/02/21 06:20:04;;;;;;;3.10;1.45;;;;;;;9.23;72.25;100412.81;4994467;28;20050;-43
2023/02/21 06:22:31;;;;;;;3.33;1.25;;;;;;;9.22;72.75;100416.25;4992065;28;20673;-45
2023/02/21 06:24:57;;;;;;;3.00;1.40;;;;;;;9.22;72.20;100411.09;5008444;28;20120;-45
2023/02/21 06:27:24;;;;;;;2.45;0.95;;;;;;;9.23;71.90;100415.38;5006556;28;20100;-45
2023/02/21 06:29:51;;;;;;;4.40;1.40;;;;;;;9.23;72.63;100412.81;5007300;28;20092;-44
2023/02/21 06:32:17;;;;;;;2.90;1.20;;;;;;;9.23;72.47;100417.97;5008192;28;20406;-47
2023/02/21 06:34:44;;;;;;;3.63;1.63;;;;;;;9.24;72.35;100414.56;5000304;28;20129;-46
2023/02/21 06:37:10;;;;;;;2.83;1.75;;;;;;;9.23;72.04;100412.81;4987612;28;20050;-42
2023/02/21 06:39:38;;;;;;;3.50;1.42;;;;;;;9.23;72.03;100417.97;5006006;28;20065;-45
2023/02/21 06:42:05;;;;;;;3.90;1.58;;;;;;;9.22;72.03;100408.50;5002727;28;20066;-45
2023/02/21 06:44:32;;;;;;;3.53;1.27;;;;;;;9.21;72.36;100403.31;5007558;28;20104;-48
2023/02/21 06:46:58;;;;;;;4.40;2.03;;;;;;;9.21;72.23;100414.53;4999732;28;20054;-45
2023/02/21 06:49:25;;;;;;;3.42;1.75;;;;;;;9.21;71.83;100409.34;5003903;28;20104;-46
2023/02/21 06:51:51;;;;;;;3.00;1.33;;;;;;;9.21;72.41;100409.34;5007239;28;20083;-47
2023/02/21 06:54:18;;;;;;;2.88;1.25;;;;;;;9.21;72.10;100406.78;5007367;28;20349;-44
2023/02/21 06:56:45;;;;;;;3.53;1.45;;;;;;;9.23;72.47;100412.81;5006340;28;20133;-45
2023/02/21 06:59:12;;;;;;;3.75;1.52;;;;;;;9.22;72.22;100400.75;4997169;28;20084;-45
2023/02/21 07:01:38;;;;;;;2.55;1.33;;;;;;;9.20;71.91;100399.88;5002983;28;20112;-45
2023/02/21 07:04:05;;;;;;;3.58;1.60;;;;;;;9.20;72.23;100401.59;5007309;28;20053;-45
2023/02/21 07:06:32;;;;;;;2.65;1.30;;;;;;;9.18;72.10;100404.16;5006456;28;20045;-42
2023/02/21 07:08:59;;;;;;;2.90;1.33;;;;;;;9.18;72.19;100409.31;5005882;28;20145;-45
2023/02/21 07:11:26;;;;;;;28.48;11.98;;;;;;;9.19;72.06;100407.63;5003975;28;20124;-49
2023/02/21 07:13:55;;;;;;;35.75;15.38;;;;;;;9.18;71.89;100401.56;5007214;28;20132;-44
2023/02/21 07:16:22;;;;;;;9.80;4.18;;;;;;;9.17;72.03;100407.59;5006983;28;20092;-45
2023/02/21 07:18:48;;;;;;;4.07;2.22;;;;;;;9.16;71.96;100400.72;5001322;28;20089;-46
2023/02/21 07:21:16;;;;;;;4.82;1.80;;;;;;;9.16;71.79;100399.84;4993639;28;20050;-46
2023/02/21 07:23:44;;;;;;;2.70;1.40;;;;;;;9.15;72.11;100408.44;4995628;28;20073;-46
2023/02/21 07:26:12;;;;;;;5.53;1.60;;;;;;;9.15;71.87;100404.13;4997947;28;20049;-41
2023/02/21 07:28:38;;;;;;;6.35;2.08;;;;;;;9.14;71.94;100399.81;5006630;28;20200;-45
2023/02/21 07:31:05;;;;;;;8.85;2.67;;;;;;;9.14;71.41;100397.22;5006813;28;20494;-47
2023/02/21 07:33:33;;;;;;;6.65;2.53;;;;;;;9.12;72.04;100394.63;5001109;28;20080;-42
2023/02/21 07:35:59;;;;;;;8.30;3.20;;;;;;;9.11;72.24;100387.75;5006835;28;20046;-43
2023/02/21 07:38:28;;;;;;;7.82;3.63;;;;;;;9.11;71.98;100387.75;5006285;28;20401;-44
2023/02/21 07:40:57;;;;;;;7.93;3.50;;;;;;;9.10;71.89;100383.44;4991907;28;20058;-45
2023/02/21 07:43:25;;;;;;;8.32;3.30;;;;;;;9.10;71.90;100387.72;4996443;28;20103;-46
2023/02/21 07:45:51;;;;;;;7.65;2.88;;;;;;;9.11;71.65;100394.63;4985833;28;20081;-42
2023/02/21 07:48:18;;;;;;;7.07;2.70;;;;;;;9.12;72.31;100388.63;4988310;28;20046;-46
2023/02/21 07:50:45;;;;;;;9.50;2.50;;;;;;;9.12;71.86;100389.47;5006645;28;20049;-43
2023/02/21 07:53:12;;;;;;;6.03;3.15;;;;;;;9.12;72.46;100393.78;5007078;28;20066;-42
2023/02/21 07:55:39;;;;;;;6.90;3.28;;;;;;;9.14;72.10;100402.41;5008747;28;20506;-43
2023/02/21 07:58:06;;;;;;;5.75;2.53;;;;;;;9.15;71.95;100403.28;5010454;28;20612;-48
2023/02/21 08:00:33;;;;;;;5.57;2.30;;;;;;;9.14;72.21;100402.41;5009075;28;20548;-44
2023/02/21 08:02:59;;;;;;;5.72;2.80;;;;;;;9.13;72.14;100406.69;5003449;28;20061;-42
2023/02/21 08:05:26;;;;;;;5.35;2.47;;;;;;;9.17;72.08;100410.19;4991260;28;20061;-47
2023/02/21 08:07:52;;;;;;;3.63;2.10;;;;;;;9.19;72.07;100405.88;4997374;28;20103;-44
2023/02/21 08:10:23;;;;;;;4.22;2.03;;;;;;;9.20;71.94;100407.63;5000737;28;20078;-44
2023/02/21 08:12:50;;;;;;;3.83;2.17;;;;;;;9.21;72.29;100409.34;4990406;28;20506;-45
2023/02/21 08:15:17;;;;;;;5.80;2.15;;;;;;;9.21;72.01;100406.78;4999838;28;20070;-42
2023/02/21 08:17:47;;;;;;;4.25;2.30;;;;;;;9.23;72.00;100410.22;4990503;28;20082;-44
2023/02/21 08:20:13;;;;;;;7.25;2.63;;;;;;;9.23;72.04;100410.22;5004784;28;20073;-45
2023/02/21 08:22:40;;;;;;;5.13;2.20;;;;;;;9.28;72.58;100412.00;5007448;28;20092;-45
2023/02/21 08:25:08;;;;;;;4.68;2.15;;;;;;;9.28;72.52;100404.25;4990450;28;20054;-45
2023/02/21 08:27:38;;;;;;;6.45;3.70;;;;;;;9.32;72.45;100411.19;4994540;28;20721;-44
2023/02/21 08:30:04;;;;;;;4.95;2.63;;;;;;;9.35;71.93;100411.19;5009895;28;20409;-44
2023/02/21 08:32:33;;;;;;;3.90;1.85;;;;;;;9.37;72.22;100409.50;5009422;28;20073;-47
2023/02/21 08:35:02;;;;;;;4.40;2.00;;;;;;;9.41;72.15;100421.59;4989388;28;20054;-45
2023/02/21 08:37:31;;;;;;;3.85;2.03;;;;;;;9.42;71.66;100410.38;5003925;28;20049;-45
2023/02/21 08:39:58;;;;;;;4.88;2.00;;;;;;;9.41;72.35;100408.66;4998980;28;20046;-44
2023/02/21 08:42:25;;;;;;;5.40;2.13;;;;;;;9.43;72.07;100409.53;5008605;28;20053;-44
2023/02/21 08:44:52;;;;;;;5.55;2.28;;;;;;;9.43;72.10;100414.72;5008657;28;20053;-41
2023/02/21 08:47:18;;;;;;;5.30;2.05;;;;;;;9.45;71.50;100413.00;5008394;28;20081;-48
2023/02/21 08:49:46;;;;;;;3.97;1.90;;;;;;;9.48;71.73;100420.78;5005721;28;20078;-45
2023/02/21 08:52:15;;;;;;;6.13;2.95;;;;;;;9.50;72.05;100415.63;5008510;28;20258;-44
2023/02/21 08:54:42;;;;;;;4.97;2.15;;;;;;;9.50;71.46;100420.78;5009903;28;20070;-41
2023/02/21 08:57:10;;;;;;;3.67;1.83;;;;;;;9.51;71.48;100422.53;5007743;28;20128;-49
2023/02/21 08:59:41;;;;;;;4.70;2.10;;;;;;;9.52;71.51;100425.13;5007505;28;20533;-44
2023/02/21 09:02:17;;;;;;;5.05;2.00;;;;;;;9.52;71.78;100424.25;4990849;28;20080;-45
2023/02/21 09:04:45;;;;;;;4.55;2.08;;;;;;;9.56;71.76;100423.41;5006990;28;20100;-43
2023/02/21 09:07:15;;;;;;;5.05;2.00;;;;;;;9.60;71.81;100422.56;5007362;28;20084;-44
2023/02/21 09:09:42;;;;;;;4.35;2.20;;;;;;;9.61;71.43;100426.03;5008125;28;20129;-44
2023/02/21 09:12:09;;;;;;;6.00;1.95;;;;;;;9.62;71.86;100427.75;4993291;28;20057;-44
2023/02/21 09:14:38;;;;;;;4.93;2.10;;;;;;;9.62;71.49;100425.19;5009114;28;20046;-41
2023/02/21 09:17:06;;;;;;;4.57;1.70;;;;;;;9.62;71.23;100423.47;5009035;28;20057;-42
2023/02/21 09:19:33;;;;;;;4.30;2.03;;;;;;;9.62;71.70;100427.75;4999641;28;20506;-45
2023/02/21 09:22:03;;;;;;;4.60;1.90;;;;;;;9.60;71.32;100417.41;5007574;28;20132;-46
2023/02/21 09:24:29;;;;;;;3.72;1.92;;;;;;;9.63;70.96;100411.41;4995820;28;20516;-44
2023/02/21 09:26:58;;;;;;;4.95;1.88;;;;;;;9.64;70.83;100413.13;5003494;28;20107;-46
2023/02/21 09:29:25;;;;;;;3.88;2.10;;;;;;;9.66;70.83;100416.59;5005118;28;20588;-45
2023/02/21 09:32:03;;;;;;;4.05;1.83;;;;;;;9.66;70.96;100411.41;5013734;28;20058;-44
2023/02/21 09:34:29;;;;;;;3.83;1.50;;;;;;;9.66;71.12;100416.59;5008958;28;20057;-47
2023/02/21 09:36:56;;;;;;;3.63;1.92;;;;;;;9.68;70.79;100416.59;5005199;28;20081;-46
2023/02/21 09:39:23;;;;;;;4.90;2.28;;;;;;;9.69;71.10;100411.44;5006304;28;20069;-46
2023/02/21 09:41:52;;;;;;;5.05;2.50;;;;;;;9.70;71.04;100402.84;4995435;28;20100;-46
2023/02/21 09:44:26;;;;;;;3.97;2.00;;;;;;;9.73;70.59;100408.00;5006884;28;20058;-44
2023/02/21 09:46:59;;;;;;;5.25;3.03;;;;;;;9.76;70.58;100407.16;5008870;28;20061;-45
2023/02/21 09:49:38;;;;;;;3.90;1.90;;;;;;;9.77;70.75;100408.91;5008415;28;20045;-40
2023/02/21 09:52:14;;;;;;;5.40;2.03;;;;;;;9.80;70.27;100402.88;5008780;28;20073;-46
2023/02/21 09:54:45;;;;;;;;;;;;;;;9.62;70.94;100399.31;4998948;28;20050;-42
2023/02/21 09:57:16;;;;;;;5.35;2.30;;;;;;;9.69;70.54;100398.50;5007446;28;19944;-45
2023/02/21 09:59:44;;;;;;;5.35;2.35;;;;;;;9.71;70.47;100399.41;5007513;28;20041;-46
2023/02/21 10:05:29;;;;;;;5.43;2.38;;;;;;;9.69;70.80;100390.75;5048502;27;20385;-44
2023/02/21 10:10:43;;;;;;;5.75;2.85;;;;;;;9.75;70.47;100401.13;5027222;27;20395;-47
2023/02/21 10:13:25;;;;;;;5.40;3.65;;;;;;;9.76;70.63;100397.69;5004602;28;20516;-46
2023/02/21 10:21:16;;;;;;;5.07;1.88;;;;;;;9.93;70.11;100394.31;5053617;27;20386;-47
2023/02/21 10:23:46;;;;;;;3.70;1.40;;;;;;;9.89;70.12;100387.41;5002686;28;20475;-44
2023/02/21 10:26:20;;;;;;;3.42;2.08;;;;;;;9.85;70.56;100394.31;5013553;28;20512;-44
2023/02/21 10:28:47;;;;;;;4.78;2.03;;;;;;;9.88;70.71;100386.56;5021202;28;20045;-42
2023/02/21 10:31:21;;;;;;;4.57;2.50;;;;;;;9.90;70.51;100399.50;5021907;28;20089;-43
2023/02/21 10:33:48;;;;;;;3.85;2.00;;;;;;;9.87;70.67;100405.50;5012256;28;20058;-47
2023/02/21 10:36:20;;;;;;;5.68;2.72;;;;;;;9.89;70.15;100390.00;5003188;28;20085;-41
2023/02/21 10:38:58;;;;;;;4.45;2.08;;;;;;;9.92;70.73;100387.44;5002885;28;20104;-45
2023/02/21 10:41:29;;;;;;;3.80;1.80;;;;;;;9.95;70.32;100390.03;4986691;28;20070;-43
2023/02/21 10:44:03;;;;;;;4.43;2.28;;;;;;;9.98;69.96;100381.44;4985073;28;20047;-45
2023/02/21 10:46:36;;;;;;;4.28;1.90;;;;;;;10.01;70.72;100384.03;5002746;28;20615;-49
2023/02/21 10:49:27;;;;;;;4.47;1.95;;;;;;;10.02;69.99;100378.88;5003117;28;20077;-43
2023/02/21 10:55:08;;;;;;;5.30;3.35;;;;;;;10.10;70.44;100386.66;5063230;27;20385;-41
2023/02/21 10:57:44;;;;;;;4.40;2.83;;;;;;;10.12;69.88;100391.84;5043347;28;20513;-43
2023/02/21 11:00:25;;;;;;;4.65;2.92;;;;;;;10.05;70.05;100397.84;5057575;28;20060;-46
2023/02/21 11:03:01;;;;;;;5.57;3.78;;;;;;;10.07;69.77;100390.97;5081452;28;20056;-45
2023/02/21 11:05:28;;;;;;;5.20;3.50;;;;;;;10.10;69.82;100380.63;5061644;28;20198;-43
2023/02/21 11:08:00;;;;;;;5.82;1.73;;;;;;;10.12;70.17;100373.72;5060732;28;20614;-45
2023/02/21 11:10:33;;;;;;;4.57;3.47;;;;;;;10.18;69.74;100378.94;5062592;28;20052;-47
2023/02/21 11:13:03;;;;;;;5.47;3.15;;;;;;;10.28;69.94;100375.53;5063949;28;20079;-45
2023/02/21 11:15:29;;;;;;;6.45;4.00;;;;;;;10.36;70.21;100372.09;5062321;28;20045;-46
2023/02/21 11:18:21;;;;;;;6.53;4.68;;;;;;;10.35;69.52;100367.78;5059769;28;20045;-44
2023/02/21 11:20:47;;;;;;;5.82;3.58;;;;;;;10.42;69.44;100366.94;5042451;28;20186;-46
2023/02/21 11:23:26;;;;;;;6.25;3.70;;;;;;;10.42;69.61;100372.13;5070770;28;20451;-41
2023/02/21 11:25:58;;;;;;;8.10;3.78;;;;;;;10.47;70.09;100370.44;5063549;28;20076;-46
2023/02/21 11:28:25;;;;;;;6.70;3.17;;;;;;;10.48;69.45;100361.81;5060443;28;20087;-45
2023/02/21 11:33:29;;;;;;;6.53;2.90;;;;;;;10.51;69.82;100356.63;5045844;27;20379;-44
2023/02/21 11:36:15;;;;;;;7.15;3.65;;;;;;;10.47;69.82;100352.31;5022812;28;20100;-42
2023/02/21 11:38:57;;;;;;;6.60;2.60;;;;;;;10.52;68.89;100348.00;5024574;28;20131;-42
2023/02/21 11:52:20;;;;;;;9.27;4.10;;;;;;;10.78;68.78;100329.03;5034428;27;20759;-44
2023/02/21 11:54:47;;;;;;;9.60;4.75;;;;;;;10.90;69.62;100319.53;5015380;28;20073;-45
2023/02/21 12:01:00;;;;;;;11.07;3.83;;;;;;;11.07;69.31;100314.38;5053634;27;21181;-45
2023/02/21 12:09:18;;;;;;;8.85;4.55;;;;;;;11.34;68.51;100298.78;5054502;27;20397;-48
2023/02/21 12:17:51;;;;;;;9.70;3.75;;;;;;;11.53;68.53;100286.63;5064510;28;20372;-45
2023/02/21 12:20:54;;;;;;;6.43;2.90;;;;;;;11.34;67.46;100280.66;5043722;28;20558;-46
2023/02/21 12:23:36;;;;;;;11.13;3.35;;;;;;;11.35;68.27;100282.38;5042146;28;20049;-48
2023/02/21 12:29:20;;;;;;;7.05;2.42;;;;;;;11.41;67.53;100261.59;5025801;27;20410;-47
2023/02/21 12:35:21;;;;;;;7.63;3.35;;;;;;;11.60;67.57;100261.53;5028752;27;20398;-47
2023/02/21 12:54:42;;;;;;;9.50;4.80;;;;;;;11.65;68.59;100234.69;5082193;27;20757;-44
2023/02/21 12:57:15;;;;;;;9.50;3.53;;;;;;;11.73;68.04;100234.69;5042896;28;20045;-42
2023/02/21 12:59:53;;;;;;;10.48;4.30;;;;;;;11.83;66.95;100238.94;5044003;28;20053;-42
2023/02/21 13:05:18;;;;;;;11.20;4.72;;;;;;;12.20;68.05;100226.66;5025527;27;20407;-44
2023/02/21 13:07:55;;;;;;;9.15;3.97;;;;;;;12.28;67.40;100222.28;5011464;28;20120;-42
2023/02/21 13:10:26;;;;;;;9.70;3.97;;;;;;;12.34;68.06;100217.03;5005316;28;20062;-48
2023/02/21 13:13:13;;;;;;;8.98;3.80;;;;;;;12.27;67.45;100215.38;5004599;28;20104;-46
2023/02/21 13:15:42;;;;;;;9.20;3.90;;;;;;;12.28;66.61;100214.50;5018601;28;20099;-49
2023/02/21 13:18:22;;;;;;;10.13;3.80;;;;;;;12.24;67.20;100210.19;5009071;28;20062;-48
2023/02/21 13:20:58;;;;;;;9.40;3.78;;;;;;;12.24;67.26;100207.59;4970174;28;20055;-42
2023/02/21 13:28:54;;;;;;;10.27;3.58;;;;;;;12.27;67.04;100196.31;5024066;27;20409;-41
2023/02/21 13:31:24;;;;;;;7.22;3.17;;;;;;;12.30;67.55;100196.31;5023717;28;20045;-41
2023/02/21 13:33:56;;;;;;;;;;;;;;;12.12;66.30;100198.16;5023014;28;20081;-47
2023/02/21 13:36:28;;;;;;;9.02;4.63;;;;;;;12.23;66.44;100195.50;5024103;28;20430;-49
2023/02/21 13:41:49;;;;;;;8.02;3.90;;;;;;;12.24;67.25;100186.81;5063477;27;20382;-44
2023/02/21 13:44:27;;;;;;;6.97;3.67;;;;;;;12.14;66.30;100179.97;5015854;28;20070;-49
2023/02/21 13:58:10;;;;;;;7.90;2.67;;;;;;;12.27;66.38;100166.03;5043755;27;20406;-45
2023/02/21 14:16:22;;;;;;;7.60;4.40;;;;;;;12.27;65.84;100137.47;5072241;27;20634;-46
2023/02/21 14:21:38;;;;;;;7.60;2.90;;;;;;;12.20;65.91;100131.44;5089629;27;20701;-47
2023/02/21 14:24:14;;;;;;;6.28;3.45;;;;;;;12.14;66.07;100117.66;5070990;27;20041;-42
2023/02/21 14:29:43;;;;;;;8.55;4.28;;;;;;;12.08;67.11;100114.25;5064027;28;20379;-49
2023/02/21 14:43:45;;;;;;;8.25;3.58;;;;;;;11.94;66.60;100100.47;5038822;27;20398;-44
2023/02/21 14:49:48;;;;;;;6.30;3.60;;;;;;;11.90;66.75;100096.16;5045523;27;20394;-44
2023/02/21 14:52:32;;;;;;;6.22;3.55;;;;;;;11.77;67.43;100087.59;5034545;28;20712;-48
2023/02/21 14:55:38;;;;;;;7.07;3.85;;;;;;;11.69;67.69;100085.94;5024530;28;20149;-44
2023/02/21 15:00:59;;;;;;;7.85;3.72;;;;;;;11.70;67.79;100090.25;5045356;27;20618;-49
2023/02/21 15:03:47;;;;;;;5.72;2.22;;;;;;;11.73;67.08;100081.59;5024579;28;20568;-45
2023/02/21 15:06:19;;;;;;;6.32;2.53;;;;;;;11.77;67.54;100080.69;5023277;28;20080;-46
2023/02/21 15:08:48;;;;;;;6.10;2.30;;;;;;;11.78;67.18;100077.22;5017969;28;20041;-42
2023/02/21 15:16:47;;;;;;;5.45;3.63;;;;;;;11.81;66.51;100068.53;5027480;27;20391;-44
2023/02/21 15:19:24;;;;;;;6.38;4.30;;;;;;;11.81;66.93;100064.22;5024886;28;20045;-46
2023/02/21 15:22:26;;;;;;;5.00;3.55;;;;;;;11.79;66.87;100059.94;5019968;28;20050;-44
2023/02/21 15:30:32;;;;;;;5.35;2.08;;;;;;;11.71;67.66;100047.00;5078101;27;20856;-49
2023/02/21 15:33:18;;;;;;;4.20;2.15;;;;;;;11.69;66.57;100046.16;5041156;28;20525;-45
2023/02/21 15:36:06;;;;;;;4.60;1.80;;;;;;;11.72;67.62;100045.28;5038914;28;20135;-45
2023/02/21 15:38:41;;;;;;;4.07;2.08;;;;;;;11.76;67.94;100045.22;5019726;28;20369;-45
2023/02/21 15:44:15;;;;;;;4.07;1.85;;;;;;;11.59;67.73;100041.91;5026632;27;20394;-44
2023/02/21 15:46:53;;;;;;;3.53;2.00;;;;;;;11.56;67.58;100035.84;5023098;28;20053;-43
2023/02/21 15:49:25;;;;;;;3.15;1.80;;;;;;;11.55;67.94;100031.53;5024321;28;20061;-46
2023/02/21 15:51:52;;;;;;;3.20;1.80;;;;;;;11.49;67.46;100035.94;5023420;28;20127;-41
2023/02/21 15:59:46;;;;;;;5.10;4.38;;;;;;;11.46;67.27;100031.63;5061365;27;20399;-47
2023/02/21 16:04:50;;;;;;;4.22;2.38;;;;;;;11.55;67.66;100030.72;5046337;27;20400;-49
2023/02/21 16:10:02;;;;;;;4.05;2.40;;;;;;;11.44;67.32;100033.34;5042018;27;20755;-44
2023/02/21 16:12:37;;;;;;;5.05;2.95;;;;;;;11.41;68.35;100023.00;5030487;28;20045;-47
2023/02/21 16:15:18;;;;;;;4.97;2.47;;;;;;;11.38;67.82;100020.44;5019365;28;20052;-41
2023/02/21 16:17:51;;;;;;;3.95;2.30;;;;;;;11.29;68.67;100023.94;5013367;28;20100;-53
2023/02/21 16:28:44;;;;;;;6.05;3.13;;;;;;;10.95;68.52;100014.63;5026859;28;20417;-45
2023/02/21 16:31:27;;;;;;;7.00;3.53;;;;;;;10.84;68.96;100012.06;5019374;28;20053;-48
2023/02/21 16:33:54;;;;;;;6.13;3.40;;;;;;;10.78;69.35;100014.72;4989305;28;20056;-46
2023/02/21 16:36:26;;;;;;;8.35;3.33;;;;;;;10.66;69.23;100008.69;4984863;28;20042;-47
2023/02/21 16:38:54;;;;;;;8.95;4.07;;;;;;;10.64;69.01;100009.59;4996006;28;20062;-43
2023/02/21 16:41:21;;;;;;;7.20;3.78;;;;;;;10.56;68.88;100006.13;5001366;28;20490;-43
2023/02/21 16:43:47;;;;;;;9.18;4.05;;;;;;;10.51;68.89;100004.41;5014888;28;20058;-43
2023/02/21 16:46:21;;;;;;;7.93;3.85;;;;;;;10.53;69.61;100000.09;5004183;28;20100;-44
2023/02/21 16:48:48;;;;;;;6.63;4.13;;;;;;;10.51;69.00;99994.06;5003227;28;20060;-46
2023/02/21 16:51:16;;;;;;;4.78;3.20;;;;;;;10.49;69.99;100001.00;5007636;28;20096;-47
2023/02/21 16:53:45;;;;;;;6.65;3.33;;;;;;;10.45;69.56;99999.28;5016691;28;20046;-44
2023/02/21 16:56:13;;;;;;;4.43;2.38;;;;;;;10.44;69.43;99997.53;5004746;28;20054;-44
2023/02/21 16:58:42;;;;;;;5.20;3.63;;;;;;;10.39;69.91;99999.25;5003415;28;20501;-49
2023/02/21 17:01:16;;;;;;;4.13;2.20;;;;;;;10.39;69.55;100004.44;5019673;28;20132;-44
2023/02/21 17:03:43;;;;;;;3.95;2.45;;;;;;;10.40;69.76;99996.66;5013970;28;20080;-44
2023/02/21 17:06:18;;;;;;;4.80;1.90;;;;;;;10.40;69.89;99998.38;5018100;28;20124;-46
2023/02/21 17:08:44;;;;;;;4.18;2.78;;;;;;;10.39;70.07;99994.06;5003109;28;20046;-45